createdAt,value
2023-03-05T00:01:19.645Z,9.25
2023-03-05T00:03:46.520Z,8.90
2023-03-05T00:06:13.118Z,9.65
2023-03-05T00:08:40.374Z,9.13
2023-03-05T00:11:09.996Z,9.70
2023-03-05T00:13:37.623Z,10.52
2023-03-05T00:16:05.804Z,10.73
2023-03-05T00:18:32.703Z,9.73
2023-03-05T00:20:59.358Z,8.57
2023-03-05T00:23:26.223Z,9.85
2023-03-05T00:25:55.941Z,10.38
2023-03-05T00:28:22.546Z,10.40
2023-03-05T00:30:49.159Z,11.32
2023-03-05T00:33:15.785Z,12.75
2023-03-05T00:35:44.234Z,9.52
2023-03-05T00:38:12.667Z,9.38
2023-03-05T00:40:41.562Z,9.82
2023-03-05T00:43:09.072Z,10.85
2023-03-05T00:45:35.805Z,8.98
2023-03-05T00:48:03.745Z,7.80
2023-03-05T00:50:30.396Z,8.32
2023-03-05T00:52:57.015Z,7.80
2023-03-05T00:55:23.536Z,8.13
2023-03-05T00:57:50.114Z,6.30
2023-03-05T01:00:17.700Z,5.78
2023-03-05T01:02:44.278Z,6.13
2023-03-05T01:05:14.644Z,5.68
2023-03-05T01:07:41.369Z,6.03
2023-03-05T01:10:08.805Z,5.50
2023-03-05T01:12:35.753Z,4.18
2023-03-05T01:15:02.920Z,3.78
2023-03-05T01:17:29.483Z,4.65
2023-03-05T01:19:55.998Z,3.17
2023-03-05T01:22:22.674Z,3.92
2023-03-05T01:24:49.194Z,3.78
2023-03-05T01:27:15.746Z,4.13
2023-03-05T01:29:42.301Z,4.05
2023-03-05T01:32:09.053Z,3.53
2023-03-05T01:34:37.742Z,4.32
2023-03-05T01:37:04.473Z,3.72
2023-03-05T01:39:31.083Z,3.42
2023-03-05T01:41:57.740Z,3.25
2023-03-05T01:44:26.760Z,3.67
2023-03-05T01:46:53.544Z,4.50
2023-03-05T01:49:25.713Z,4.43
2023-03-05T01:54:31.592Z,5.07
2023-03-05T01:57:01.917Z,3.88
2023-03-05T01:59:28.638Z,3.42
2023-03-05T02:01:57.749Z,4.82
2023-03-05T02:04:32.404Z,4.03
2023-03-05T02:06:59.534Z,5.35
2023-03-05T02:09:28.608Z,4.65
2023-03-05T02:11:56.408Z,2.80
2023-03-05T02:14:24.297Z,3.35
2023-03-05T02:16:50.955Z,2.72
2023-03-05T02:19:17.712Z,3.63
2023-03-05T02:21:48.631Z,3.25
2023-03-05T02:24:17.826Z,2.85
2023-03-05T02:26:46.685Z,3.22
2023-03-05T02:29:18.722Z,3.15
2023-03-05T02:34:12.475Z,2.42
2023-03-05T02:36:39.467Z,2.45
2023-03-05T02:39:06.590Z,2.10
2023-03-05T02:41:33.672Z,3.85
2023-03-05T02:46:29.932Z,2.65
2023-03-05T02:48:56.579Z,3.50
2023-03-05T02:51:24.000Z,2.90
2023-03-05T02:53:51.085Z,2.20
2023-03-05T02:56:17.898Z,2.78
2023-03-05T02:58:44.590Z,2.53
2023-03-05T03:01:11.861Z,2.85
2023-03-05T03:03:38.750Z,2.20
2023-03-05T03:06:09.217Z,3.88
2023-03-05T03:08:35.985Z,2.00
2023-03-05T03:11:11.062Z,2.60
2023-03-05T03:13:38.040Z,2.85
2023-03-05T03:16:10.695Z,2.40
2023-03-05T03:18:37.263Z,2.92
2023-03-05T03:21:04.500Z,2.40
2023-03-05T03:23:31.544Z,3.67
2023-03-05T03:25:58.187Z,3.08
2023-03-05T03:28:25.358Z,3.72
2023-03-05T03:30:51.971Z,4.38
2023-03-05T03:33:18.601Z,4.85
2023-03-05T03:35:46.432Z,3.08
2023-03-05T03:38:13.824Z,3.30
2023-03-05T03:40:41.851Z,3.13
2023-03-05T03:43:08.719Z,2.97
2023-03-05T03:45:35.442Z,3.33
2023-03-05T03:48:02.029Z,2.53
2023-03-05T03:50:28.600Z,2.85
2023-03-05T03:52:55.190Z,3.42
2023-03-05T03:55:21.709Z,3.67
2023-03-05T03:57:48.313Z,3.88
2023-03-05T04:00:15.193Z,3.00
2023-03-05T04:02:42.747Z,3.42
2023-03-05T04:05:09.572Z,2.78
2023-03-05T04:07:36.194Z,4.72
2023-03-05T04:10:02.899Z,3.53
2023-03-05T04:12:29.537Z,3.00
2023-03-05T04:14:56.021Z,4.78
2023-03-05T04:17:22.690Z,4.05
2023-03-05T04:19:49.407Z,4.80
2023-03-05T04:22:17.475Z,5.05
2023-03-05T04:24:44.327Z,3.95
2023-03-05T04:27:12.389Z,3.97
2023-03-05T04:29:38.885Z,4.38
2023-03-05T04:32:06.366Z,4.03
2023-03-05T04:34:33.435Z,3.45
2023-03-05T04:37:00.094Z,4.97
2023-03-05T04:39:26.651Z,4.78
2023-03-05T04:41:53.207Z,4.25
2023-03-05T04:44:19.761Z,5.10
2023-03-05T04:46:46.442Z,5.03
2023-03-05T04:49:13.190Z,4.57
2023-03-05T04:51:39.755Z,4.78
2023-03-05T04:54:06.266Z,4.88
2023-03-05T04:56:33.346Z,5.78
2023-03-05T04:59:00.066Z,4.20
2023-03-05T05:01:26.798Z,6.07
2023-03-05T05:03:53.330Z,6.03
2023-03-05T05:06:19.966Z,5.45
2023-03-05T05:08:46.446Z,6.05
2023-03-05T05:11:14.423Z,7.88
2023-03-05T05:13:41.006Z,8.40
2023-03-05T05:16:08.548Z,7.35
2023-03-05T05:18:35.657Z,8.25
2023-03-05T05:21:02.308Z,7.82
2023-03-05T05:23:28.845Z,8.50
2023-03-05T05:25:57.875Z,8.95
2023-03-05T05:28:24.518Z,8.50
2023-03-05T05:30:51.048Z,8.57
2023-03-05T05:33:17.594Z,9.32
2023-03-05T05:35:44.221Z,10.35
2023-03-05T05:38:10.780Z,9.70
2023-03-05T05:40:37.380Z,10.48
2023-03-05T05:43:04.052Z,9.60
2023-03-05T05:45:30.795Z,10.55
2023-03-05T05:47:57.467Z,9.13
2023-03-05T05:50:24.045Z,11.38
2023-03-05T05:52:53.362Z,9.98
2023-03-05T05:55:20.153Z,10.75
2023-03-05T05:57:46.777Z,12.57
2023-03-05T06:00:16.497Z,10.45
2023-03-05T06:02:43.683Z,11.65
2023-03-05T06:05:12.961Z,10.38
2023-03-05T06:07:39.454Z,10.82
2023-03-05T06:10:06.822Z,10.65
2023-03-05T06:12:33.310Z,9.77
2023-03-05T06:14:59.911Z,9.63
2023-03-05T06:17:30.673Z,8.63
2023-03-05T06:19:58.706Z,9.90
2023-03-05T06:22:25.511Z,10.20
2023-03-05T06:24:52.162Z,11.20
2023-03-05T06:27:18.649Z,10.27
2023-03-05T06:29:47.970Z,10.18
2023-03-05T06:32:14.576Z,10.15
2023-03-05T06:34:41.199Z,10.90
2023-03-05T06:37:07.689Z,11.80
2023-03-05T06:39:34.335Z,11.32
2023-03-05T06:42:00.911Z,13.35
2023-03-05T06:44:27.516Z,11.38
2023-03-05T06:46:54.068Z,9.98
2023-03-05T06:49:20.706Z,12.45
2023-03-05T06:51:47.236Z,12.52
2023-03-05T06:54:16.414Z,11.60
2023-03-05T06:56:45.601Z,11.90
2023-03-05T06:59:14.162Z,12.52
2023-03-05T07:01:40.818Z,12.27
2023-03-05T07:04:07.837Z,13.10
2023-03-05T07:06:36.653Z,12.52
2023-03-05T07:09:05.479Z,10.32
2023-03-05T07:11:35.527Z,12.68
2023-03-05T07:14:02.775Z,12.15
2023-03-05T07:16:32.051Z,13.55
2023-03-05T07:19:02.684Z,36.65
2023-03-05T07:21:32.330Z,14.85
2023-03-05T07:24:00.688Z,16.00
2023-03-05T07:26:27.942Z,12.55
2023-03-05T07:28:55.324Z,13.68
2023-03-05T07:31:27.244Z,15.20
2023-03-05T07:33:54.201Z,27.80
2023-03-05T07:36:20.845Z,36.85
2023-03-05T07:38:47.503Z,12.27
2023-03-05T07:41:19.963Z,12.70
2023-03-05T07:43:48.540Z,26.77
2023-03-05T07:46:16.818Z,12.13
2023-03-05T07:48:43.458Z,13.98
2023-03-05T07:51:16.251Z,14.98
2023-03-05T07:53:43.888Z,19.92
2023-03-05T07:56:11.098Z,19.08
2023-03-05T07:58:37.849Z,14.43
2023-03-05T08:01:04.810Z,12.10
2023-03-05T08:03:33.730Z,14.80
2023-03-05T08:06:00.332Z,17.35
2023-03-05T08:08:26.959Z,9.80
2023-03-05T08:10:56.265Z,11.40
2023-03-05T08:13:22.882Z,8.55
2023-03-05T08:15:49.417Z,8.57
2023-03-05T08:18:19.071Z,11.00
2023-03-05T08:20:46.850Z,17.08
2023-03-05T08:23:13.410Z,11.93
2023-03-05T08:25:40.032Z,11.88
2023-03-05T08:28:06.715Z,9.40
2023-03-05T08:30:33.292Z,14.02
2023-03-05T08:32:59.955Z,8.48
2023-03-05T08:35:26.530Z,12.80
2023-03-05T08:37:53.189Z,7.90
2023-03-05T08:40:20.187Z,6.95
2023-03-05T08:42:46.825Z,7.38
2023-03-05T08:45:13.415Z,13.82
2023-03-05T08:47:40.354Z,8.88
2023-03-05T08:50:07.357Z,8.95
2023-03-05T08:52:34.162Z,7.85
2023-03-05T08:55:01.058Z,9.10
2023-03-05T08:57:27.760Z,8.63
2023-03-05T08:59:54.403Z,9.00
2023-03-05T09:02:21.154Z,10.57
2023-03-05T09:04:47.791Z,10.20
2023-03-05T09:07:14.428Z,12.38
2023-03-05T09:09:41.051Z,10.25
2023-03-05T09:12:07.996Z,12.18
2023-03-05T09:14:34.507Z,16.50
2023-03-05T09:17:02.131Z,13.30
2023-03-05T09:19:28.667Z,15.35
2023-03-05T09:21:56.992Z,16.08
2023-03-05T09:24:23.716Z,12.98
2023-03-05T09:26:50.675Z,14.02
2023-03-05T09:29:17.561Z,17.75
2023-03-05T09:31:44.320Z,17.27
2023-03-05T09:34:13.737Z,17.95
2023-03-05T09:36:40.302Z,25.90
2023-03-05T09:39:07.024Z,17.67
2023-03-05T09:41:59.943Z,22.85
2023-03-05T09:44:41.575Z,18.15
2023-03-05T09:47:14.878Z,17.47
2023-03-05T09:49:55.271Z,17.30
2023-03-05T09:52:28.803Z,16.77
2023-03-05T09:54:57.849Z,17.85
2023-03-05T09:57:43.667Z,19.52
2023-03-05T10:00:37.904Z,15.07
2023-03-05T10:03:10.469Z,14.15
2023-03-05T10:06:04.136Z,18.42
2023-03-05T10:08:46.986Z,15.43
2023-03-05T10:11:28.325Z,16.35
2023-03-05T10:13:55.086Z,15.55
2023-03-05T10:16:39.592Z,16.02
2023-03-05T10:19:34.030Z,15.02
2023-03-05T10:22:22.254Z,17.60
2023-03-05T10:25:04.388Z,15.80
2023-03-05T10:27:56.832Z,19.10
2023-03-05T10:33:02.496Z,15.68
2023-03-05T10:35:50.763Z,15.82
2023-03-05T10:38:35.763Z,14.93
2023-03-05T10:41:12.427Z,17.70
2023-03-05T10:43:52.818Z,20.77
2023-03-05T10:46:22.229Z,16.63
2023-03-05T10:48:59.711Z,18.30
2023-03-05T10:51:35.118Z,14.15
2023-03-05T10:54:28.925Z,19.20
2023-03-05T10:57:18.024Z,24.40
2023-03-05T10:59:49.871Z,21.65
2023-03-05T11:02:17.393Z,20.05
2023-03-05T11:04:44.390Z,24.02
2023-03-05T11:07:17.157Z,28.30
2023-03-05T11:10:02.067Z,20.77
2023-03-05T11:12:33.400Z,18.60
2023-03-05T11:15:26.476Z,15.37
2023-03-05T11:18:16.708Z,19.00
2023-03-05T11:20:43.710Z,19.40
2023-03-05T11:23:23.745Z,19.95
2023-03-05T11:26:05.584Z,17.80
2023-03-05T11:28:41.065Z,18.67
2023-03-05T11:31:19.938Z,14.43
2023-03-05T11:33:58.062Z,13.85
2023-03-05T11:36:36.663Z,13.07
2023-03-05T11:39:23.468Z,15.82
2023-03-05T11:42:06.293Z,14.23
2023-03-05T11:44:38.168Z,15.13
2023-03-05T11:47:18.474Z,57.63
2023-03-05T11:49:47.600Z,15.00
2023-03-05T11:52:23.319Z,18.02
2023-03-05T11:55:11.180Z,22.75
2023-03-05T11:57:47.287Z,13.57
2023-03-05T12:00:19.074Z,14.18
2023-03-05T12:02:50.522Z,19.67
2023-03-05T12:05:17.473Z,17.50
2023-03-05T12:07:49.343Z,13.15
2023-03-05T12:10:22.476Z,17.17
2023-03-05T12:12:49.125Z,11.63
2023-03-05T12:15:18.407Z,11.40
2023-03-05T12:18:03.682Z,11.93
2023-03-05T12:20:42.187Z,18.33
2023-03-05T12:23:18.359Z,13.50
2023-03-05T12:25:46.993Z,22.42
2023-03-05T12:28:37.437Z,12.00
2023-03-05T12:31:06.565Z,33.72
2023-03-05T12:33:43.864Z,14.05
2023-03-05T12:36:19.600Z,9.35
2023-03-05T12:38:54.124Z,12.02
2023-03-05T12:41:23.484Z,45.58
2023-03-05T12:44:05.050Z,15.07
2023-03-05T12:46:35.890Z,14.35
2023-03-05T12:49:17.770Z,10.68
2023-03-05T12:51:46.558Z,9.43
2023-03-05T12:54:27.621Z,9.85
2023-03-05T12:56:59.858Z,11.88
2023-03-05T13:00:11.011Z,13.80
2023-03-05T13:02:42.562Z,12.32
2023-03-05T13:05:34.184Z,13.23
2023-03-05T13:08:28.188Z,6.30
2023-03-05T13:11:16.767Z,9.00
2023-03-05T13:13:46.219Z,7.07
2023-03-05T13:16:29.038Z,9.05
2023-03-05T13:18:59.266Z,10.25
2023-03-05T13:21:29.671Z,14.13
2023-03-05T13:24:01.932Z,9.38
2023-03-05T13:29:16.747Z,11.23
2023-03-05T13:31:57.447Z,10.68
2023-03-05T13:34:32.036Z,9.13
2023-03-05T13:37:01.501Z,7.85
2023-03-05T13:39:34.226Z,9.05
2023-03-05T13:42:07.078Z,9.18
2023-03-05T13:44:34.625Z,15.18
2023-03-05T13:47:29.170Z,9.98
2023-03-05T13:50:05.765Z,9.07
2023-03-05T13:52:36.206Z,5.90
2023-03-05T13:55:05.411Z,7.45
2023-03-05T13:57:39.983Z,6.15
2023-03-05T14:00:34.697Z,5.55
2023-03-05T14:03:09.155Z,6.35
2023-03-05T14:05:36.219Z,6.70
2023-03-05T14:08:03.135Z,5.32
2023-03-05T14:10:38.177Z,5.13
2023-03-05T14:13:11.657Z,4.93
2023-03-05T14:15:39.228Z,4.88
2023-03-05T14:18:11.871Z,5.70
2023-03-05T14:20:59.663Z,4.65
2023-03-05T14:23:44.301Z,5.18
2023-03-05T14:26:22.801Z,4.57
2023-03-05T14:29:08.970Z,23.38
2023-03-05T14:31:46.239Z,4.28
2023-03-05T14:34:24.859Z,9.23
2023-03-05T14:36:53.741Z,6.22
2023-03-05T14:39:46.740Z,4.63
2023-03-05T14:42:39.379Z,5.65
2023-03-05T14:47:51.512Z,5.25
2023-03-05T14:50:27.865Z,6.03
2023-03-05T14:53:04.095Z,6.07
2023-03-05T14:55:32.105Z,6.18
2023-03-05T14:58:14.078Z,36.75
2023-03-05T15:00:41.282Z,6.30
2023-03-05T15:03:11.516Z,7.05
2023-03-05T15:05:39.065Z,4.43
2023-03-05T15:08:06.193Z,4.85
2023-03-05T15:10:32.910Z,4.88
2023-03-05T15:12:59.694Z,5.72
2023-03-05T15:15:26.956Z,5.63
2023-03-05T15:17:55.109Z,7.85
2023-03-05T15:20:27.796Z,5.80
2023-03-05T15:22:54.991Z,6.93
2023-03-05T15:25:23.407Z,33.00
2023-03-05T15:27:53.467Z,10.88
2023-03-05T15:30:35.455Z,21.35
2023-03-05T15:33:06.520Z,28.30
2023-03-05T15:35:33.223Z,6.95
2023-03-05T15:37:59.923Z,9.30
2023-03-05T15:40:27.897Z,11.90
2023-03-05T15:42:56.557Z,59.25
2023-03-05T15:45:23.649Z,33.28
2023-03-05T15:47:51.941Z,17.00
2023-03-05T15:50:20.349Z,24.52
2023-03-05T15:52:47.703Z,11.50
2023-03-05T15:55:14.403Z,6.47
2023-03-05T15:57:46.594Z,47.20
2023-03-05T16:02:40.743Z,9.00
2023-03-05T16:05:08.493Z,15.82
2023-03-05T16:07:39.063Z,11.82
2023-03-05T16:10:07.069Z,12.93
2023-03-05T16:12:40.773Z,6.63
2023-03-05T16:15:13.666Z,7.30
2023-03-05T16:17:43.106Z,5.93
2023-03-05T16:20:12.492Z,10.90
2023-03-05T16:22:39.491Z,8.13
2023-03-05T16:25:06.817Z,7.95
2023-03-05T16:27:33.818Z,7.55
2023-03-05T16:30:00.544Z,6.10
2023-03-05T16:32:29.378Z,6.43
2023-03-05T16:34:58.184Z,9.25
2023-03-05T16:37:27.947Z,5.70
2023-03-05T16:39:58.058Z,5.07
2023-03-05T16:42:24.629Z,7.00
2023-03-05T16:44:51.802Z,5.05
2023-03-05T16:47:18.525Z,8.23
2023-03-05T16:49:48.069Z,13.18
2023-03-05T16:52:19.175Z,5.93
2023-03-05T16:54:47.479Z,8.82
2023-03-05T16:57:14.502Z,5.70
2023-03-05T16:59:41.536Z,10.93
2023-03-05T17:02:08.220Z,7.95
2023-03-05T17:04:35.331Z,6.88
2023-03-05T17:07:04.084Z,7.45
2023-03-05T17:09:30.869Z,7.57
2023-03-05T17:11:57.444Z,8.52
2023-03-05T17:14:24.223Z,6.78
2023-03-05T17:16:50.966Z,5.68
2023-03-05T17:19:17.693Z,7.55
2023-03-05T17:21:44.363Z,8.00
2023-03-05T17:24:11.774Z,10.25
2023-03-05T17:26:38.553Z,8.15
2023-03-05T17:29:06.195Z,7.70
2023-03-05T17:31:32.887Z,8.48
2023-03-05T17:34:00.058Z,9.85
2023-03-05T17:36:27.723Z,9.32
2023-03-05T17:38:54.502Z,11.52
2023-03-05T17:41:21.888Z,12.27
2023-03-05T17:43:49.085Z,11.98
2023-03-05T17:46:17.063Z,12.23
2023-03-05T17:48:44.153Z,11.80
2023-03-05T17:51:14.324Z,12.00
2023-03-05T17:53:41.212Z,12.80
2023-03-05T17:56:13.206Z,11.27
2023-03-05T17:58:42.732Z,11.57
2023-03-05T18:01:09.644Z,13.40
2023-03-05T18:03:41.657Z,14.20
2023-03-05T18:06:09.912Z,14.50
2023-03-05T18:08:37.049Z,14.25
2023-03-05T18:11:03.762Z,14.93
2023-03-05T18:13:30.309Z,14.85
2023-03-05T18:16:00.860Z,16.67
2023-03-05T18:18:27.758Z,17.92
2023-03-05T18:20:55.065Z,17.73
2023-03-05T18:23:21.683Z,20.10
2023-03-05T18:25:48.372Z,18.05
2023-03-05T18:28:16.103Z,18.80
2023-03-05T18:30:48.312Z,18.58
2023-03-05T18:33:25.027Z,18.00
2023-03-05T18:35:52.463Z,18.55
2023-03-05T18:38:24.295Z,17.52
2023-03-05T18:40:52.665Z,14.05
2023-03-05T18:43:21.333Z,18.25
2023-03-05T18:45:53.048Z,20.27
2023-03-05T18:48:20.485Z,25.30
2023-03-05T18:50:50.608Z,20.80
2023-03-05T18:53:21.620Z,36.53
2023-03-05T18:55:50.938Z,29.60
2023-03-05T18:58:18.715Z,30.23
2023-03-05T19:00:52.166Z,56.70
2023-03-05T19:03:20.650Z,28.63
2023-03-05T19:05:50.139Z,21.63
2023-03-05T19:08:20.557Z,54.70
2023-03-05T19:10:50.011Z,21.17
2023-03-05T19:13:35.510Z,17.42
2023-03-05T19:16:09.445Z,16.90
2023-03-05T19:18:43.086Z,16.90
2023-03-05T19:21:11.948Z,17.25
2023-03-05T19:23:38.476Z,16.45
2023-03-05T19:26:05.542Z,18.73
2023-03-05T19:28:32.182Z,19.00
2023-03-05T19:30:58.973Z,19.95
2023-03-05T19:33:25.701Z,21.48
2023-03-05T19:35:52.492Z,22.38
2023-03-05T19:38:21.986Z,21.35
2023-03-05T19:40:48.876Z,20.02
2023-03-05T19:43:17.606Z,23.88
2023-03-05T19:45:49.681Z,23.98
2023-03-05T19:48:19.054Z,20.20
2023-03-05T19:50:45.636Z,18.98
2023-03-05T19:53:12.329Z,19.65
2023-03-05T19:55:40.355Z,18.95
2023-03-05T19:58:10.022Z,21.60
2023-03-05T20:00:37.225Z,21.23
2023-03-05T20:03:09.443Z,21.95
2023-03-05T20:05:40.005Z,20.88
2023-03-05T20:08:06.698Z,23.92
2023-03-05T20:10:35.576Z,22.48
2023-03-05T20:13:05.560Z,21.85
2023-03-05T20:15:35.347Z,21.00
2023-03-05T20:18:01.969Z,22.77
2023-03-05T20:20:31.087Z,20.75
2023-03-05T20:23:01.055Z,17.65
2023-03-05T20:25:28.222Z,16.08
2023-03-05T20:27:54.882Z,19.35
2023-03-05T20:30:25.016Z,15.82
2023-03-05T20:32:51.865Z,14.45
2023-03-05T20:35:21.555Z,12.18
2023-03-05T20:38:00.256Z,11.70
2023-03-05T20:40:27.345Z,12.40
2023-03-05T20:43:00.946Z,11.98
2023-03-05T20:45:27.678Z,12.77
2023-03-05T20:47:55.317Z,12.55
2023-03-05T20:50:24.432Z,12.38
2023-03-05T20:52:51.227Z,12.10
2023-03-05T20:55:17.927Z,12.93
2023-03-05T20:57:45.550Z,12.82
2023-03-05T21:00:15.811Z,13.95
2023-03-05T21:02:42.556Z,18.13
2023-03-05T21:05:12.146Z,15.65
2023-03-05T21:07:48.531Z,16.45
2023-03-05T21:12:16.530Z,16.65
2023-03-05T21:14:43.706Z,16.48
2023-03-05T21:17:10.414Z,18.95
2023-03-05T21:19:40.105Z,16.88
2023-03-05T21:22:07.923Z,17.00
2023-03-05T21:24:53.842Z,17.13
2023-03-05T21:27:20.847Z,16.65
2023-03-05T21:29:47.558Z,14.95
2023-03-05T21:32:14.945Z,13.70
2023-03-05T21:34:46.318Z,12.07
2023-03-05T21:37:13.203Z,13.65
2023-03-05T21:39:39.812Z,13.98
2023-03-05T21:42:09.212Z,12.20
2023-03-05T21:44:35.792Z,13.30
2023-03-05T21:47:02.867Z,13.25
2023-03-05T21:49:29.430Z,12.73
2023-03-05T21:52:13.704Z,11.20
2023-03-05T21:54:41.839Z,12.65
2023-03-05T21:57:10.888Z,13.55
2023-03-05T21:59:41.694Z,14.23
2023-03-05T22:02:16.821Z,14.65
2023-03-05T22:04:44.439Z,16.25
2023-03-05T22:07:11.115Z,17.23
2023-03-05T22:09:38.095Z,16.27
2023-03-05T22:12:06.246Z,18.58
2023-03-05T22:14:32.984Z,20.83
2023-03-05T22:17:02.070Z,19.02
2023-03-05T22:19:32.398Z,25.40
2023-03-05T22:21:58.989Z,27.15
2023-03-05T22:24:28.381Z,19.63
2023-03-05T22:26:55.107Z,23.88
2023-03-05T22:29:21.602Z,20.23
2023-03-05T22:31:48.306Z,16.00
2023-03-05T22:34:14.930Z,22.10
2023-03-05T22:36:41.541Z,26.10
2023-03-05T22:39:08.223Z,26.35
2023-03-05T22:41:34.862Z,17.90
2023-03-05T22:44:01.414Z,21.73
2023-03-05T22:46:28.123Z,17.20
2023-03-05T22:48:54.850Z,13.65
2023-03-05T22:51:21.500Z,12.82
2023-03-05T22:53:48.106Z,11.75
2023-03-05T22:56:18.252Z,10.50
2023-03-05T22:58:45.060Z,11.93
2023-03-05T23:01:14.096Z,12.75
2023-03-05T23:03:42.213Z,15.90
2023-03-05T23:06:09.485Z,14.00
2023-03-05T23:08:36.516Z,14.43
2023-03-05T23:11:08.747Z,13.32
2023-03-05T23:16:01.965Z,14.93
2023-03-05T23:18:28.758Z,14.18
2023-03-05T23:20:55.401Z,17.30
2023-03-05T23:23:22.223Z,16.95
2023-03-05T23:25:51.491Z,32.50
2023-03-05T23:28:19.614Z,39.22
2023-03-05T23:30:46.460Z,29.25
2023-03-05T23:33:20.756Z,24.33
2023-03-05T23:35:59.477Z,28.17
2023-03-05T23:38:28.023Z,20.45
2023-03-05T23:40:58.523Z,16.70
2023-03-05T23:43:27.080Z,55.85
2023-03-05T23:45:55.083Z,55.65
2023-03-05T23:48:26.298Z,21.90
2023-03-05T23:50:53.233Z,14.93
2023-03-05T23:53:24.652Z,13.88
2023-03-05T23:55:51.965Z,16.23
2023-03-05T23:58:20.482Z,15.52
